Time;durP1;ratioP1;P1;durP2;ratioP2;P2;SDS_P1;SDS_P2;PMS_P1;PMS_P2;Temp;Humidity;BMP_temperature;BMP_pressure;BME280_temperature;BME280_humidity;BME280_pressure;Samples;Min_cycle;Max_cycle;Signal;HPM_P1;HPM_P2
2023/10/13 00:01:59;;;;;;;17.25;6.22;;;15.10;99.90;;;;;;5076397;28;20028;-66
2023/10/13 00:04:25;;;;;;;12.32;6.75;;;15.10;99.90;;;;;;5074801;28;20048;-66
2023/10/13 00:06:52;;;;;;;12.32;6.53;;;15.00;99.90;;;;;;5076432;28;20033;-66
2023/10/13 00:09:20;;;;;;;15.98;6.80;;;15.00;99.90;;;;;;5075295;28;20115;-66
2023/10/13 00:11:46;;;;;;;14.40;7.35;;;15.00;99.90;;;;;;5076276;28;20111;-66
2023/10/13 00:14:16;;;;;;;12.20;6.78;;;15.00;99.90;;;;;;5076467;28;20021;-66
2023/10/13 00:17:00;;;;;;;13.40;6.78;;;15.00;99.90;;;;;;5075207;28;20032;-66
2023/10/13 00:19:27;;;;;;;14.93;6.85;;;14.90;99.90;;;;;;5075187;28;20028;-66
2023/10/13 00:21:56;;;;;;;12.98;6.97;;;14.90;99.90;;;;;;5076056;28;20029;-66
2023/10/13 00:24:23;;;;;;;13.43;6.85;;;14.90;99.90;;;;;;5074681;28;20032;-66
2023/10/13 00:26:49;;;;;;;12.70;7.30;;;14.90;99.90;;;;;;5074664;28;20066;-66
2023/10/13 00:29:17;;;;;;;14.75;7.82;;;14.90;99.90;;;;;;5074858;28;20020;-66
2023/10/13 00:31:45;;;;;;;18.70;8.02;;;14.90;99.90;;;;;;5074618;28;20040;-66
2023/10/13 00:37:11;;;;;;;17.70;7.43;;;14.90;99.90;;;;;;5075821;28;20376;-66
2023/10/13 00:39:43;;;;;;;14.27;7.68;;;14.90;99.90;;;;;;5075331;28;20123;-66
2023/10/13 00:42:18;;;;;;;16.45;6.68;;;14.90;99.90;;;;;;5074932;28;20028;-66
2023/10/13 00:44:48;;;;;;;11.43;7.50;;;14.90;99.90;;;;;;5075580;28;20037;-66
2023/10/13 00:47:17;;;;;;;14.60;7.40;;;14.90;99.90;;;;;;5075633;28;20029;-66
2023/10/13 00:49:47;;;;;;;18.38;8.15;;;14.90;99.90;;;;;;5075534;28;20036;-66
2023/10/13 00:52:15;;;;;;;13.73;7.30;;;14.80;99.90;;;;;;5075328;28;20028;-66
2023/10/13 00:54:45;;;;;;;16.35;8.15;;;14.80;99.90;;;;;;5074212;28;20077;-66
2023/10/13 00:57:47;;;;;;;12.90;7.65;;;14.80;99.90;;;;;;5075332;28;20025;-66
2023/10/13 01:00:18;;;;;;;15.50;8.25;;;14.80;99.90;;;;;;5073759;28;20032;-65
2023/10/13 01:02:55;;;;;;;15.45;8.27;;;14.80;99.90;;;;;;5075202;28;20025;-67
2023/10/13 01:05:23;;;;;;;16.73;7.55;;;14.70;99.90;;;;;;5075575;28;20115;-67
2023/10/13 01:07:52;;;;;;;14.93;8.50;;;14.70;99.90;;;;;;5074071;28;20029;-67
2023/10/13 01:10:19;;;;;;;;;;;14.70;99.90;;;;;;5074305;28;20028;-67
2023/10/13 01:12:52;;;;;;;12.52;7.97;;;14.70;99.90;;;;;;5075120;28;19911;-67
2023/10/13 01:15:21;;;;;;;16.10;8.95;;;14.70;99.90;;;;;;5075273;28;20048;-67
2023/10/13 01:17:47;;;;;;;15.32;8.95;;;14.70;99.90;;;;;;5075150;28;20021;-67
2023/10/13 01:20:25;;;;;;;20.50;9.18;;;14.70;99.90;;;;;;5074811;28;20104;-67
2023/10/13 01:22:55;;;;;;;19.23;9.95;;;14.70;99.90;;;;;;5073508;28;20028;-67
2023/10/13 01:25:27;;;;;;;20.80;8.30;;;14.70;99.90;;;;;;5073259;28;20044;-67
2023/10/13 01:27:53;;;;;;;15.10;8.60;;;14.70;99.90;;;;;;5075098;28;20020;-67
2023/10/13 01:30:23;;;;;;;19.00;8.98;;;14.60;99.90;;;;;;5073463;28;20021;-67
2023/10/13 01:32:53;;;;;;;18.33;8.15;;;14.60;99.90;;;;;;5061811;28;20041;-67
2023/10/13 01:35:25;;;;;;;18.95;9.40;;;14.60;99.90;;;;;;5037224;28;20037;-67
2023/10/13 01:37:51;;;;;;;12.75;8.68;;;14.60;99.90;;;;;;5037439;28;20033;-67
2023/10/13 01:40:19;;;;;;;17.65;8.88;;;14.60;99.90;;;;;;5036817;28;20025;-67
2023/10/13 01:42:46;;;;;;;17.20;9.87;;;14.70;99.90;;;;;;5054412;28;20029;-67
2023/10/13 01:45:13;;;;;;;17.20;9.25;;;14.70;99.90;;;;;;5054725;28;20037;-67
2023/10/13 01:47:39;;;;;;;17.05;8.25;;;14.70;99.90;;;;;;5054491;28;20021;-67
2023/10/13 01:50:14;;;;;;;16.30;8.82;;;14.70;99.90;;;;;;5055614;28;20067;-67
2023/10/13 01:52:41;;;;;;;21.23;9.07;;;14.70;99.90;;;;;;5047719;28;20096;-68
2023/10/13 01:55:09;;;;;;;15.48;8.63;;;14.70;99.90;;;;;;5048221;28;20032;-67
2023/10/13 01:57:35;;;;;;;20.33;9.85;;;14.70;99.90;;;;;;5048802;28;20433;-67
2023/10/13 02:00:10;;;;;;;16.25;8.57;;;14.70;99.90;;;;;;5049397;28;20031;-67
2023/10/13 02:02:44;;;;;;;14.38;9.10;;;14.70;99.90;;;;;;5048573;28;20044;-67
2023/10/13 02:05:10;;;;;;;13.80;8.85;;;14.70;99.90;;;;;;5061025;28;20037;-67
2023/10/13 02:07:38;;;;;;;12.75;8.25;;;14.60;99.90;;;;;;5055042;28;20435;-67
2023/10/13 02:10:05;;;;;;;12.73;9.43;;;14.60;99.90;;;;;;5037670;28;20068;-67
2023/10/13 02:13:04;;;;;;;15.38;9.18;;;14.60;99.90;;;;;;5055485;28;20033;-67
2023/10/13 02:15:26;;;;;;;14.07;9.05;;;14.70;99.90;;;;;;5050941;28;20041;-67
2023/10/13 02:17:54;;;;;;;13.63;8.77;;;14.70;99.90;;;;;;5036469;28;20472;-67
2023/10/13 02:20:25;;;;;;;20.17;8.85;;;14.70;99.90;;;;;;5053879;28;20442;-67
2023/10/13 02:22:51;;;;;;;16.27;8.75;;;14.60;99.90;;;;;;5055491;28;20118;-67
2023/10/13 02:25:35;;;;;;;15.73;8.15;;;14.60;99.90;;;;;;5054934;28;20036;-67
2023/10/13 02:28:01;;;;;;;16.17;8.73;;;14.60;99.90;;;;;;5054537;28;20028;-67
2023/10/13 02:30:27;;;;;;;13.25;8.93;;;14.60;99.90;;;;;;5035960;28;20351;-67
2023/10/13 02:32:55;;;;;;;13.45;9.05;;;14.50;99.90;;;;;;5053302;28;20064;-67
2023/10/13 02:35:29;;;;;;;13.38;8.55;;;14.60;99.90;;;;;;5053830;28;20430;-67
2023/10/13 02:37:57;;;;;;;19.27;9.00;;;14.50;99.90;;;;;;5036435;28;20025;-67
2023/10/13 02:40:23;;;;;;;17.05;9.75;;;14.50;99.90;;;;;;5053661;28;20060;-67
2023/10/13 02:42:49;;;;;;;13.38;8.52;;;14.50;99.90;;;;;;5053234;28;20076;-67
2023/10/13 02:45:15;;;;;;;14.20;8.70;;;14.40;99.90;;;;;;5035732;28;20127;-67
2023/10/13 02:47:44;;;;;;;17.55;8.35;;;14.40;99.90;;;;;;5053617;28;20413;-67
2023/10/13 02:50:12;;;;;;;16.42;9.18;;;14.40;99.90;;;;;;5035662;28;20029;-67
2023/10/13 02:52:41;;;;;;;16.13;8.82;;;14.40;99.90;;;;;;5053515;28;20033;-67
2023/10/13 02:55:14;;;;;;;20.95;9.73;;;14.40;99.90;;;;;;5036467;28;20112;-67
2023/10/13 02:57:40;;;;;;;14.77;9.38;;;14.50;99.90;;;;;;5053587;28;20465;-67
2023/10/13 03:00:12;;;;;;;15.48;9.38;;;14.40;99.90;;;;;;5053542;28;20021;-67
2023/10/13 03:02:44;;;;;;;11.57;8.63;;;14.40;99.90;;;;;;5019888;28;20060;-67
2023/10/13 03:05:13;;;;;;;21.67;9.85;;;14.40;99.90;;;;;;5053539;28;20029;-67
2023/10/13 03:07:43;;;;;;;15.68;9.32;;;14.40;99.90;;;;;;5035328;28;20025;-67
2023/10/13 03:10:09;;;;;;;15.32;9.45;;;14.40;99.90;;;;;;5053497;28;20377;-67
2023/10/13 03:12:36;;;;;;;19.25;10.07;;;14.50;99.90;;;;;;5053610;28;20033;-67
2023/10/13 03:17:43;;;;;;;19.08;10.45;;;14.50;99.90;;;;;;5055867;28;20021;-67
2023/10/13 03:20:15;;;;;;;20.63;9.38;;;14.50;99.90;;;;;;5057130;28;20021;-67
2023/10/13 03:22:44;;;;;;;19.27;9.73;;;14.50;99.90;;;;;;5057203;28;20029;-67
2023/10/13 03:25:24;;;;;;;18.15;10.48;;;14.50;99.90;;;;;;5057052;28;20033;-67
2023/10/13 03:30:17;;;;;;;20.25;10.63;;;13.10;99.90;;;;;;5056994;28;20033;-67
2023/10/13 03:32:54;;;;;;;23.33;11.73;;;14.50;99.90;;;;;;5056999;28;20128;-67
2023/10/13 03:35:37;;;;;;;14.90;9.45;;;14.50;99.90;;;;;;5039467;28;20021;-67
2023/10/13 03:38:04;;;;;;;20.00;8.88;;;14.50;99.90;;;;;;5057123;28;20040;-67
2023/10/13 03:43:10;;;;;;;18.63;10.38;;;14.50;99.90;;;;;;5056885;28;20039;-67
2023/10/13 03:45:39;;;;;;;15.63;9.40;;;14.50;99.90;;;;;;5057062;28;20460;-67
2023/10/13 03:48:09;;;;;;;;;;;14.50;99.90;;;;;;5056905;28;20029;-67
2023/10/13 03:51:03;;;;;;;15.27;9.43;;;14.50;99.90;;;;;;5056840;28;19905;-67
2023/10/13 03:53:33;;;;;;;14.95;9.70;;;14.60;99.90;;;;;;5056073;28;20049;-67
2023/10/13 03:56:08;;;;;;;19.45;10.85;;;14.60;99.90;;;;;;5039223;28;20091;-67
2023/10/13 03:58:36;;;;;;;15.93;9.10;;;14.60;99.90;;;;;;5056200;28;20025;-67
2023/10/13 04:01:03;;;;;;;14.25;9.18;;;14.60;99.90;;;;;;5056410;28;20028;-67
2023/10/13 04:03:35;;;;;;;16.00;9.05;;;14.60;99.90;;;;;;5056206;28;20029;-67
2023/10/13 04:06:06;;;;;;;12.73;8.63;;;14.60;99.90;;;;;;5056390;28;20052;-67
2023/10/13 04:08:48;;;;;;;18.88;9.63;;;14.60;99.90;;;;;;5056415;28;20028;-67
2023/10/13 04:14:55;;;;;;;12.43;8.43;;;14.60;99.90;;;;;;5017773;28;20461;-67
2023/10/13 04:17:12;;;;;;;17.13;9.65;;;14.60;99.90;;;;;;5055532;28;20025;-67
2023/10/13 04:20:12;;;;;;;14.50;9.80;;;14.70;99.90;;;;;;5055809;28;20385;-57
2023/10/13 04:22:42;;;;;;;17.83;9.77;;;14.70;99.90;;;;;;5055342;28;20075;-67
2023/10/13 04:25:34;;;;;;;25.98;11.35;;;14.80;99.90;;;;;;5055783;28;20091;-67
2023/10/13 04:28:14;;;;;;;18.65;10.00;;;14.80;99.90;;;;;;5055306;28;20488;-67
2023/10/13 04:41:43;;;;;;;26.88;11.52;;;14.80;99.90;;;;;;5055550;28;20116;-65
2023/10/13 04:47:07;;;;;;;21.17;10.32;;;14.80;99.90;;;;;;5055268;28;20000;-66
2023/10/13 04:55:09;;;;;;;19.67;10.02;;;14.80;99.90;;;;;;5056759;28;20116;-67
2023/10/13 06:29:57;;;;;;;12.43;7.75;;;15.20;99.90;;;;;;5074173;28;20602;-66
2023/10/13 06:32:25;;;;;;;10.13;7.55;;;15.30;99.90;;;;;;5073705;28;20123;-66
2023/10/13 06:35:18;;;;;;;12.40;7.97;;;15.30;99.90;;;;;;5055996;28;20047;-66
2023/10/13 06:37:45;;;;;;;13.15;7.50;;;15.30;99.90;;;;;;5055701;28;20639;-66
2023/10/13 06:42:46;;;;;;;8.18;6.93;;;15.50;99.90;;;;;;5074134;28;20041;-66
2023/10/13 06:45:12;;;;;;;15.45;7.28;;;15.60;99.90;;;;;;5074223;28;20392;-66
2023/10/13 06:47:44;;;;;;;15.10;7.18;;;15.70;99.90;;;;;;5056463;28;20020;-66
2023/10/13 06:50:15;;;;;;;15.80;8.10;;;15.90;99.90;;;;;;5074350;28;20024;-66
2023/10/13 06:52:46;;;;;;;16.67;8.55;;;16.00;99.90;;;;;;5060605;28;20029;-66
2023/10/13 06:55:17;;;;;;;14.18;6.28;;;16.20;99.90;;;;;;5060611;28;20530;-66
2023/10/13 06:57:43;;;;;;;13.55;6.75;;;16.20;99.90;;;;;;5079175;28;20028;-66
2023/10/13 07:00:19;;;;;;;16.25;7.53;;;16.30;99.90;;;;;;5078242;28;20035;-66
2023/10/13 07:02:46;;;;;;;11.57;6.55;;;16.40;99.90;;;;;;5078081;28;20116;-66
2023/10/13 07:05:13;;;;;;;16.60;6.47;;;16.50;99.90;;;;;;5077731;28;20028;-66
2023/10/13 07:07:40;;;;;;;13.93;5.95;;;16.70;99.90;;;;;;5077848;28;20056;-66
2023/10/13 07:10:11;;;;;;;14.88;6.72;;;16.90;99.90;;;;;;5077607;28;20029;-66
2023/10/13 07:12:38;;;;;;;15.07;6.13;;;17.00;99.90;;;;;;5060227;28;20032;-67
2023/10/13 07:15:27;;;;;;;14.27;6.40;;;17.20;99.90;;;;;;5080990;28;20051;-68
2023/10/13 07:17:59;;;;;;;9.48;5.15;;;17.40;99.90;;;;;;5081833;28;20397;-68
2023/10/13 07:25:54;;;;;;;7.05;4.43;;;18.50;99.90;;;;;;5060450;28;20423;-77
2023/10/13 07:28:20;;;;;;;9.75;4.22;;;18.90;99.90;;;;;;5079096;28;20115;-68
2023/10/13 07:33:21;;;;;;;6.55;3.80;;;19.80;99.90;;;;;;5077455;28;20071;-68
2023/10/13 07:35:50;;;;;;;9.02;3.63;;;20.10;99.90;;;;;;5076729;28;20062;-69
2023/10/13 07:38:16;;;;;;;;;;;20.50;99.90;;;;;;5077611;28;20029;-69
2023/10/13 07:40:50;;;;;;;8.35;3.90;;;20.90;99.90;;;;;;5059186;28;20021;-69
2023/10/13 07:43:21;;;;;;;11.40;4.00;;;21.20;99.90;;;;;;5076911;28;20062;-66
2023/10/13 07:45:51;;;;;;;7.78;4.20;;;21.60;99.90;;;;;;5076822;28;20029;-66
2023/10/13 07:48:20;;;;;;;5.35;3.67;;;22.00;99.90;;;;;;5059102;28;20021;-66
2023/10/13 07:51:10;;;;;;;11.52;4.25;;;22.20;99.90;;;;;;5076657;28;20028;-66
2023/10/13 07:53:39;;;;;;;9.70;3.22;;;22.30;99.90;;;;;;5076772;28;20032;-65
2023/10/13 07:56:08;;;;;;;;;;;22.70;99.90;;;;;;5076971;28;20103;-65
2023/10/13 07:58:35;;;;;;;7.72;3.88;;;23.00;99.90;;;;;;5058968;28;19908;-66
2023/10/13 08:01:07;;;;;;;8.85;4.18;;;23.40;99.90;;;;;;5076921;28;20060;-66
2023/10/13 08:03:45;;;;;;;10.63;3.35;;;23.60;99.90;;;;;;5075655;28;20036;-66
2023/10/13 08:08:43;;;;;;;7.35;3.40;;;23.80;99.90;;;;;;5076485;28;20115;-66
2023/10/13 08:11:34;;;;;;;8.90;3.15;;;24.00;99.90;;;;;;5076373;28;20044;-66
2023/10/13 08:14:10;;;;;;;9.95;3.42;;;24.10;99.90;;;;;;5075849;28;20036;-64
2023/10/13 08:16:52;;;;;;;6.70;3.63;;;24.40;99.90;;;;;;5058247;28;20037;-66
2023/10/13 08:19:39;;;;;;;8.93;3.53;;;24.90;99.90;;;;;;5058246;28;20454;-66
2023/10/13 08:30:26;;;;;;;6.32;3.08;;;25.70;99.90;;;;;;5079559;28;20479;-67
2023/10/13 08:33:04;;;;;;;6.22;3.10;;;25.90;99.90;;;;;;5079373;28;20056;-67
2023/10/13 08:43:12;;;;;;;10.63;3.30;;;27.40;96.70;;;;;;5075825;28;20558;-67
2023/10/13 08:48:16;;;;;;;12.30;3.20;;;27.60;95.80;;;;;;5075662;28;20388;-67
2023/10/13 08:50:48;;;;;;;10.18;3.25;;;27.70;95.10;;;;;;5075992;28;20033;-67
2023/10/13 08:53:33;;;;;;;4.65;3.08;;;27.80;94.20;;;;;;5075831;28;20039;-67
2023/10/13 08:56:17;;;;;;;8.00;2.80;;;28.00;93.40;;;;;;5058082;28;20101;-68
2023/10/13 09:09:35;;;;;;;7.15;2.78;;;29.00;90.80;;;;;;5075330;28;20025;-67
2023/10/13 09:25:37;;;;;;;11.70;2.85;;;27.80;89.80;;;;;;5075037;28;20509;-67
2023/10/13 09:28:17;;;;;;;7.90;2.72;;;28.30;90.20;;;;;;5074834;28;20024;-67
2023/10/13 09:30:44;;;;;;;8.52;2.90;;;28.30;88.60;;;;;;5056971;28;20029;-68
2023/10/13 09:33:15;;;;;;;6.55;3.33;;;27.70;89.60;;;;;;5074814;28;20048;-67
2023/10/13 09:35:51;;;;;;;7.80;3.10;;;27.50;87.30;;;;;;5074686;28;20017;-67
2023/10/13 09:38:17;;;;;;;4.38;2.33;;;27.50;87.40;;;;;;5074894;28;20020;-67
2023/10/13 09:40:50;;;;;;;5.40;2.20;;;26.80;91.00;;;;;;5074771;28;20027;-67
2023/10/13 09:43:17;;;;;;;9.38;3.20;;;26.50;89.40;;;;;;5056833;28;20085;-67
2023/10/13 09:48:35;;;;;;;11.63;3.03;;;26.90;91.00;;;;;;5074493;28;20414;-67
2023/10/13 09:51:06;;;;;;;9.38;2.97;;;28.20;88.00;;;;;;5074634;28;20024;-67
2023/10/13 09:53:34;;;;;;;7.13;3.05;;;29.40;85.00;;;;;;5074283;28;20032;-68
2023/10/13 09:56:19;;;;;;;4.05;2.78;;;30.00;84.60;;;;;;5073968;28;20024;-68
2023/10/13 09:59:10;;;;;;;5.50;2.80;;;30.30;76.90;;;;;;5056795;28;20043;-68
2023/10/13 10:01:57;;;;;;;7.22;2.67;;;30.50;78.50;;;;;;5056341;28;20032;-68
2023/10/13 10:04:23;;;;;;;4.23;2.03;;;30.80;73.50;;;;;;5074226;28;20024;-68
2023/10/13 10:07:08;;;;;;;6.40;3.03;;;30.80;74.00;;;;;;5074316;28;20368;-68
2023/10/13 10:09:34;;;;;;;9.45;2.97;;;31.00;72.60;;;;;;5074431;28;20457;-68
2023/10/13 10:12:18;;;;;;;5.80;2.60;;;31.30;74.10;;;;;;5074084;28;20036;-68
2023/10/13 10:15:06;;;;;;;7.95;3.05;;;31.50;71.90;;;;;;5074094;28;20369;-68
2023/10/13 10:17:39;;;;;;;;;;;31.60;71.80;;;;;;5074473;28;20128;-68
2023/10/13 10:20:14;;;;;;;6.63;2.67;;;32.00;72.20;;;;;;5074019;28;20340;-68
2023/10/13 10:22:47;;;;;;;6.25;2.88;;;32.30;69.50;;;;;;5073958;28;20025;-68
2023/10/13 10:25:26;;;;;;;5.13;2.83;;;32.60;68.00;;;;;;5073713;28;20082;-68
2023/10/13 10:27:59;;;;;;;8.77;2.80;;;32.80;65.40;;;;;;5073925;28;20048;-68
2023/10/13 10:30:29;;;;;;;5.60;2.70;;;33.20;64.20;;;;;;5073766;28;20031;-68
2023/10/13 10:33:06;;;;;;;4.93;2.80;;;33.50;62.00;;;;;;5074020;28;20106;-68
2023/10/13 10:35:33;;;;;;;8.20;2.65;;;33.80;61.80;;;;;;5073928;28;20024;-68
2023/10/13 10:40:56;;;;;;;6.45;2.85;;;34.30;60.20;;;;;;5074209;28;20039;-68
2023/10/13 10:43:26;;;;;;;4.25;2.35;;;34.80;58.10;;;;;;5073958;28;20029;-68
2023/10/13 10:45:52;;;;;;;7.40;2.45;;;35.10;60.10;;;;;;5074011;28;20112;-68
2023/10/13 10:48:19;;;;;;;7.20;3.05;;;35.30;56.50;;;;;;5073670;28;20051;-68
2023/10/13 10:50:54;;;;;;;7.38;2.80;;;35.20;58.40;;;;;;5074148;28;20021;-69
2023/10/13 10:53:57;;;;;;;8.35;3.00;;;34.90;58.20;;;;;;5073831;28;20032;-68
2023/10/13 10:56:20;;;;;;;5.50;2.35;;;35.00;55.90;;;;;;5068257;28;20037;-68
2023/10/13 10:58:54;;;;;;;8.73;2.35;;;35.20;57.50;;;;;;5055988;28;20024;-68
2023/10/13 11:01:43;;;;;;;9.25;2.90;;;35.40;54.40;;;;;;5056015;28;20028;-68
2023/10/13 11:04:18;;;;;;;7.30;2.22;;;35.30;54.00;;;;;;5073536;28;20040;-68
2023/10/13 11:06:57;;;;;;;7.30;2.67;;;35.30;56.70;;;;;;5073471;28;20029;-68
2023/10/13 11:09:45;;;;;;;6.80;2.50;;;35.40;55.10;;;;;;5073599;28;20025;-68
2023/10/13 11:12:16;;;;;;;8.82;2.90;;;35.60;51.90;;;;;;5073327;28;20063;-69
2023/10/13 11:14:46;;;;;;;9.13;2.95;;;36.20;52.00;;;;;;5073648;28;20021;-68
2023/10/13 11:17:26;;;;;;;6.63;2.67;;;36.70;50.60;;;;;;5073303;28;20059;-68
2023/10/13 11:19:52;;;;;;;6.03;2.60;;;36.60;50.30;;;;;;5073648;28;20020;-68
2023/10/13 11:22:36;;;;;;;4.72;2.33;;;36.50;49.20;;;;;;5073699;28;20040;-68
2023/10/13 11:25:12;;;;;;;5.85;2.40;;;36.30;48.00;;;;;;5073556;28;20143;-68
2023/10/13 11:31:00;;;;;;;8.95;2.72;;;36.00;48.60;;;;;;5073278;28;20089;-68
2023/10/13 11:33:09;;;;;;;5.53;2.58;;;36.30;44.90;;;;;;5060105;28;20056;-69
2023/10/13 11:38:27;;;;;;;6.72;2.00;;;36.20;48.50;;;;;;5075075;28;20036;-69
2023/10/13 11:43:26;;;;;;;11.85;2.92;;;36.40;44.50;;;;;;5076679;28;20077;-68
2023/10/13 11:46:55;;;;;;;7.75;2.70;;;36.60;46.00;;;;;;5058869;28;20082;-68
2023/10/13 11:48:44;;;;;;;4.82;2.08;;;36.40;46.80;;;;;;5067995;28;20036;-68
2023/10/13 11:51:17;;;;;;;10.07;2.00;;;36.50;41.40;;;;;;5058688;28;20067;-68
2023/10/13 11:53:51;;;;;;;5.68;2.20;;;36.50;38.20;;;;;;5076789;28;20032;-68
2023/10/13 11:56:20;;;;;;;5.75;2.60;;;36.60;43.40;;;;;;5076516;28;20021;-68
2023/10/13 11:58:47;;;;;;;7.90;2.08;;;36.90;41.80;;;;;;5076399;28;20035;-68
2023/10/13 12:11:41;;;;;;;5.80;2.10;;;36.70;40.10;;;;;;5075986;28;20246;-68
2023/10/13 12:14:21;;;;;;;7.22;2.22;;;36.90;42.90;;;;;;5076242;28;20020;-66
2023/10/13 12:16:53;;;;;;;5.45;2.00;;;36.80;42.30;;;;;;5059739;28;20043;-58
2023/10/13 12:19:23;;;;;;;8.13;2.38;;;36.20;45.20;;;;;;5058269;28;20023;-58
2023/10/13 12:21:56;;;;;;;4.18;2.08;;;35.20;44.50;;;;;;5075856;28;20060;-58
2023/10/13 12:27:18;;;;;;;5.68;2.10;;;34.10;47.10;;;;;;5076025;28;20342;-57
2023/10/13 12:29:47;;;;;;;6.93;2.40;;;33.80;45.80;;;;;;5076529;28;20353;-58
2023/10/13 12:32:14;;;;;;;9.45;2.08;;;33.70;47.00;;;;;;5075358;28;20485;-57
2023/10/13 12:53:53;;;;;;;7.03;2.95;;;34.50;43.80;;;;;;5075637;28;20043;-68
2023/10/13 12:56:26;;;;;;;7.20;2.42;;;34.80;45.70;;;;;;5075357;28;20453;-68
2023/10/13 12:58:55;;;;;;;7.50;2.67;;;35.00;47.50;;;;;;5058826;28;20039;-69
2023/10/13 13:01:27;;;;;;;8.25;2.53;;;35.10;43.30;;;;;;5075066;28;20464;-68
2023/10/13 13:03:56;;;;;;;9.68;2.80;;;35.10;45.50;;;;;;5075741;28;20028;-68
2023/10/13 13:06:29;;;;;;;8.63;3.03;;;34.70;44.00;;;;;;5075288;28;20059;-68
2023/10/13 13:08:56;;;;;;;3.58;2.60;;;34.30;43.90;;;;;;5075657;28;20024;-68
2023/10/13 13:11:23;;;;;;;9.38;2.75;;;33.70;46.50;;;;;;5075276;28;20025;-68
2023/10/13 13:13:49;;;;;;;7.53;2.78;;;33.20;48.80;;;;;;5074692;28;20472;-67
2023/10/13 13:16:18;;;;;;;15.23;3.30;;;33.10;48.10;;;;;;5075155;28;20056;-67
2023/10/13 13:18:44;;;;;;;7.18;3.15;;;32.90;48.20;;;;;;5074935;28;20028;-62
2023/10/13 13:21:19;;;;;;;6.68;2.67;;;32.90;48.40;;;;;;5075022;28;20028;-62
2023/10/13 13:23:46;;;;;;;8.35;2.85;;;32.70;49.80;;;;;;5074690;28;20518;-63
2023/10/13 13:26:17;;;;;;;10.65;2.53;;;32.70;50.50;;;;;;5074422;28;20484;-62
2023/10/13 13:28:50;;;;;;;11.57;2.28;;;32.60;49.70;;;;;;5074903;28;20024;-63
2023/10/13 13:31:17;;;;;;;14.88;3.17;;;32.50;50.10;;;;;;5056487;28;20039;-63
2023/10/13 13:33:43;;;;;;;7.70;2.95;;;32.50;49.40;;;;;;5056791;28;20115;-63
2023/10/13 13:36:15;;;;;;;13.90;3.75;;;32.30;47.00;;;;;;5056562;28;20051;-63
2023/10/13 13:38:42;;;;;;;11.70;3.85;;;32.20;49.80;;;;;;5074848;28;20029;-68
2023/10/13 13:41:16;;;;;;;7.70;2.90;;;31.80;51.10;;;;;;5057673;28;20032;-68
2023/10/13 13:44:00;;;;;;;9.30;4.10;;;31.10;52.50;;;;;;5074593;28;20400;-68
2023/10/13 13:46:32;;;;;;;6.85;3.42;;;30.40;47.70;;;;;;5074624;28;20461;-68
2023/10/13 13:48:59;;;;;;;11.02;3.65;;;29.80;51.90;;;;;;5056411;28;20108;-68
2023/10/13 13:51:33;;;;;;;8.73;3.00;;;29.60;54.90;;;;;;5056339;28;20025;-68
2023/10/13 13:53:59;;;;;;;7.55;3.40;;;28.90;57.30;;;;;;5074255;28;20500;-68
2023/10/13 13:56:27;;;;;;;11.05;3.45;;;28.40;58.50;;;;;;5074245;28;20021;-68
2023/10/13 13:58:54;;;;;;;9.85;3.55;;;27.90;58.30;;;;;;5056189;28;20539;-68
2023/10/13 14:01:25;;;;;;;12.05;3.70;;;27.80;59.40;;;;;;5073391;28;20020;-68
2023/10/13 14:03:52;;;;;;;12.65;3.75;;;27.60;60.50;;;;;;5074185;28;20024;-67
2023/10/13 14:06:28;;;;;;;9.10;3.35;;;27.30;61.40;;;;;;5074125;28;20035;-68
2023/10/13 14:09:03;;;;;;;6.97;3.40;;;27.00;62.40;;;;;;5074069;28;20093;-68
2023/10/13 14:16:51;;;;;;;8.60;3.13;;;26.50;64.30;;;;;;5073957;28;20065;-66
2023/10/13 14:19:26;;;;;;;13.32;3.25;;;26.40;63.10;;;;;;5073681;28;20033;-66
2023/10/13 14:21:55;;;;;;;10.88;3.17;;;26.40;64.70;;;;;;5073715;28;20072;-65
2023/10/13 14:24:28;;;;;;;6.63;2.95;;;26.60;64.50;;;;;;5073988;28;20109;-67
2023/10/13 14:27:07;;;;;;;10.93;3.15;;;26.70;63.50;;;;;;5056322;28;20467;-68
2023/10/13 14:29:45;;;;;;;10.20;3.78;;;26.90;62.60;;;;;;5074179;28;20025;-68
2023/10/13 14:32:13;;;;;;;8.40;3.03;;;26.80;63.40;;;;;;5073504;28;20082;-67
2023/10/13 14:34:43;;;;;;;9.53;2.97;;;26.40;64.10;;;;;;5073853;28;20032;-66
2023/10/13 14:37:12;;;;;;;9.93;2.95;;;26.20;63.50;;;;;;5055692;28;20477;-66
2023/10/13 14:39:41;;;;;;;9.40;3.03;;;26.00;64.50;;;;;;5073672;28;20024;-66
2023/10/13 14:42:07;;;;;;;7.60;3.30;;;25.80;66.00;;;;;;5055480;28;20105;-66
2023/10/13 14:44:33;;;;;;;16.75;3.15;;;25.60;66.00;;;;;;5073529;28;20064;-67
2023/10/13 14:47:00;;;;;;;9.65;2.95;;;25.40;68.20;;;;;;5055574;28;20472;-66
2023/10/13 14:49:26;;;;;;;10.38;2.88;;;25.10;69.00;;;;;;5055578;28;20020;-66
2023/10/13 14:51:54;;;;;;;12.65;3.22;;;25.00;68.90;;;;;;5073960;28;20025;-66
2023/10/13 14:54:35;;;;;;;10.35;3.30;;;25.00;69.40;;;;;;5055847;28;20020;-66
2023/10/13 14:57:02;;;;;;;13.02;3.20;;;25.70;70.40;;;;;;5074084;28;20021;-66
2023/10/13 14:59:32;;;;;;;13.73;3.33;;;25.10;69.30;;;;;;5076473;28;20025;-67
2023/10/13 15:02:01;;;;;;;8.48;3.15;;;25.10;69.70;;;;;;5077429;28;20025;-66
2023/10/13 15:04:28;;;;;;;11.18;2.88;;;24.90;70.40;;;;;;5078544;28;20028;-69
2023/10/13 15:06:55;;;;;;;8.88;3.08;;;24.60;70.80;;;;;;5082265;28;20104;-68
2023/10/13 15:09:23;;;;;;;13.23;3.30;;;24.20;71.40;;;;;;5083540;28;20024;-69
2023/10/13 15:11:53;;;;;;;17.55;3.88;;;23.90;73.50;;;;;;5085084;28;20117;-68
2023/10/13 15:14:25;;;;;;;11.15;2.75;;;23.70;71.80;;;;;;5085551;28;20106;-69
2023/10/13 15:16:55;;;;;;;9.25;3.65;;;23.50;74.00;;;;;;5082482;28;20132;-69
2023/10/13 15:19:20;;;;;;;8.73;3.10;;;23.30;77.20;;;;;;5080401;28;20021;-68
2023/10/13 15:21:50;;;;;;;9.77;3.65;;;23.00;75.40;;;;;;5082596;28;20027;-69
2023/10/13 15:24:25;;;;;;;7.22;3.00;;;22.80;78.20;;;;;;5081047;28;20052;-68
2023/10/13 15:26:56;;;;;;;9.27;3.50;;;22.50;79.90;;;;;;5079359;28;20067;-68
2023/10/13 15:29:26;;;;;;;8.05;3.47;;;22.30;81.10;;;;;;5077978;28;20020;-68
2023/10/13 15:34:26;;;;;;;8.15;3.65;;;21.90;86.10;;;;;;5097711;28;20024;-68
2023/10/13 15:36:52;;;;;;;9.40;2.97;;;21.70;89.00;;;;;;5097425;28;20024;-68
2023/10/13 15:39:23;;;;;;;12.57;3.78;;;21.50;91.00;;;;;;5097296;28;20017;-68
2023/10/13 15:41:52;;;;;;;12.55;3.88;;;21.40;91.90;;;;;;5097187;28;20016;-68
2023/10/13 15:44:20;;;;;;;;;;;21.30;92.80;;;;;;5097533;28;20380;-68
2023/10/13 15:46:49;;;;;;;10.18;4.20;;;21.10;94.60;;;;;;5097124;28;19904;-68
2023/10/13 15:49:15;;;;;;;;;;;21.00;95.90;;;;;;5097491;28;20427;-68
2023/10/13 15:51:42;;;;;;;10.68;3.67;;;20.80;97.80;;;;;;5096816;28;20006;-68
2023/10/13 15:54:17;;;;;;;11.63;4.10;;;20.70;99.00;;;;;;5095986;28;20024;-67
2023/10/13 15:56:47;;;;;;;14.35;3.67;;;20.50;99.90;;;;;;5096816;28;20421;-68
2023/10/13 15:59:14;;;;;;;10.60;3.60;;;20.40;99.90;;;;;;5096508;28;20044;-67
2023/10/13 16:01:40;;;;;;;15.68;5.45;;;20.20;99.90;;;;;;5095369;28;20035;-67
2023/10/13 16:04:18;;;;;;;12.85;3.92;;;20.10;99.90;;;;;;5096670;28;20029;-67
2023/10/13 16:06:46;;;;;;;14.35;4.93;;;20.00;99.90;;;;;;5097071;28;20089;-67
2023/10/13 16:09:15;;;;;;;13.52;4.50;;;19.90;99.90;;;;;;5096636;28;20048;-67
2023/10/13 16:11:42;;;;;;;;;;;19.80;99.90;;;;;;5097054;28;20063;-67
2023/10/13 16:14:15;;;;;;;9.32;3.38;;;19.60;99.90;;;;;;5094902;28;19911;-68
2023/10/13 16:16:44;;;;;;;15.40;5.30;;;19.50;99.90;;;;;;5095183;28;20177;-67
2023/10/13 16:19:10;;;;;;;;;;;19.40;99.90;;;;;;5096763;28;20024;-67
2023/10/13 16:21:39;;;;;;;12.98;4.85;;;19.20;99.90;;;;;;5095051;28;19904;-67
2023/10/13 16:24:05;;;;;;;;;;;19.00;99.90;;;;;;5096291;28;20464;-67
2023/10/13 16:26:31;;;;;;;15.65;4.60;;;19.00;99.90;;;;;;5096481;28;19999;-67
2023/10/13 16:28:58;;;;;;;18.67;4.72;;;18.90;99.90;;;;;;5096174;28;20116;-67
2023/10/13 16:31:28;;;;;;;12.98;4.38;;;18.70;99.90;;;;;;5094882;28;20115;-59
2023/10/13 16:33:59;;;;;;;14.13;4.60;;;18.70;99.90;;;;;;5075956;28;20115;-60
2023/10/13 16:36:25;;;;;;;11.25;3.90;;;18.60;99.90;;;;;;5076392;28;20055;-59
2023/10/13 16:38:51;;;;;;;14.05;5.00;;;18.40;99.90;;;;;;5075769;28;20027;-60
2023/10/13 16:41:16;;;;;;;17.17;4.70;;;18.40;99.90;;;;;;5075784;28;20021;-59
2023/10/13 16:43:42;;;;;;;17.05;4.63;;;18.30;99.90;;;;;;5057695;28;20521;-59
2023/10/13 16:46:12;;;;;;;12.40;4.75;;;18.20;99.90;;;;;;5075907;28;20028;-63
2023/10/13 16:48:38;;;;;;;8.40;4.10;;;18.20;99.90;;;;;;5057585;28;20476;-61
2023/10/13 16:51:05;;;;;;;17.30;4.90;;;18.10;99.90;;;;;;5057614;28;20147;-61
2023/10/13 16:53:32;;;;;;;14.18;5.07;;;18.00;99.90;;;;;;5057343;28;20036;-60
2023/10/13 16:56:00;;;;;;;9.60;4.57;;;17.90;99.90;;;;;;5057398;28;20027;-59
2023/10/13 16:58:27;;;;;;;39.05;5.75;;;17.90;99.90;;;;;;5057466;28;20025;-67
2023/10/13 17:00:53;;;;;;;12.35;5.60;;;17.90;99.90;;;;;;5075640;28;20035;-67